Time;durP1;ratioP1;P1;durP2;ratioP2;P2;SDS_P1;SDS_P2;PMS_P1;PMS_P2;Temp;Humidity;BMP_temperature;BMP_pressure;BME280_temperature;BME280_humidity;BME280_pressure;Samples;Min_cycle;Max_cycle;Signal;HPM_P1;HPM_P2
2022/03/09 00:00:34;;;;;;;14.95;8.45;;;;;;;2.25;38.50;100415.84;7692521;32;38987;-73
2022/03/09 00:04:50;;;;;;;16.98;8.32;;;;;;;2.51;37.82;100407.00;7685544;32;39857;-72
2022/03/09 00:09:06;;;;;;;18.25;9.75;;;;;;;1.93;38.99;100414.66;7684153;32;37880;-74
2022/03/09 00:13:22;;;;;;;16.20;10.00;;;;;;;1.82;39.48;100416.87;7685414;32;37170;-71
2022/03/09 00:17:38;;;;;;;19.52;10.95;;;;;;;1.83;41.30;100413.19;7685191;32;39344;-73
2022/03/09 00:21:54;;;;;;;21.83;10.90;;;;;;;1.83;40.17;100415.06;7685208;32;40118;-72
2022/03/09 00:26:11;;;;;;;18.65;10.13;;;;;;;2.01;39.50;100411.81;7684999;32;38029;-72
2022/03/09 00:30:27;;;;;;;18.98;9.48;;;;;;;2.00;39.36;100407.44;7685231;32;36831;-72
2022/03/09 00:34:44;;;;;;;19.75;10.65;;;;;;;2.01;39.33;100390.28;7685086;32;40087;-74
2022/03/09 00:39:00;;;;;;;18.45;10.75;;;;;;;1.68;40.13;100385.59;7685082;32;40674;-72
2022/03/09 00:43:17;;;;;;;21.48;10.20;;;;;;;1.64;40.39;100378.97;7684969;32;37882;-72
2022/03/09 00:47:33;;;;;;;17.90;10.40;;;;;;;1.69;41.62;100381.88;7702960;32;37958;-74
2022/03/09 00:51:49;;;;;;;21.10;9.80;;;;;;;2.04;40.91;100366.53;7711321;32;39263;-73
2022/03/09 00:56:06;;;;;;;21.73;10.40;;;;;;;1.98;41.45;100375.38;7711284;32;41414;-73
2022/03/09 01:00:23;;;;;;;18.85;9.63;;;;;;;1.95;41.04;100374.94;7710246;32;39133;-71
2022/03/09 01:04:39;;;;;;;18.83;11.05;;;;;;;1.35;42.22;100371.97;7711522;32;37025;-73
2022/03/09 01:08:57;;;;;;;25.30;10.95;;;;;;;1.36;42.20;100361.00;7710831;32;39862;-74
2022/03/09 01:13:13;;;;;;;20.20;10.82;;;;;;;1.40;41.54;100356.09;7711330;32;40645;-71
2022/03/09 01:17:32;;;;;;;17.10;10.32;;;;;;;1.23;41.67;100374.38;7692433;32;38254;-71
2022/03/09 01:21:49;;;;;;;20.90;10.63;;;;;;;1.39;40.99;100375.91;7683281;32;38142;-73
2022/03/09 01:26:05;;;;;;;17.70;10.85;;;;;;;1.56;40.41;100376.44;7684511;32;40011;-72
2022/03/09 01:30:22;;;;;;;20.15;11.12;;;;;;;1.48;40.87;100380.94;7703954;32;40857;-74
2022/03/09 01:34:38;;;;;;;19.40;10.55;;;;;;;1.25;41.33;100380.38;7701430;32;38775;-72
2022/03/09 01:38:54;;;;;;;19.62;10.25;;;;;;;1.55;40.43;100374.78;7684415;32;37228;-74
2022/03/09 01:43:13;;;;;;;22.08;10.95;;;;;;;1.53;40.33;100384.88;7684348;32;40182;-72
2022/03/09 01:47:30;;;;;;;20.35;10.57;;;;;;;1.45;40.70;100400.16;7701294;32;39695;-73
2022/03/09 01:51:47;;;;;;;19.98;10.20;;;;;;;1.33;40.83;100393.66;7710614;32;37995;-74
2022/03/09 01:56:03;;;;;;;15.30;9.02;;;;;;;1.32;40.95;100397.38;7710727;32;37541;-74
2022/03/09 02:00:21;;;;;;;17.85;9.52;;;;;;;1.43;40.51;100396.84;7710277;32;40092;-74
2022/03/09 02:04:37;;;;;;;21.55;10.07;;;;;;;1.23;41.25;100393.19;7710580;32;39974;-74
2022/03/09 02:13:28;;;;;;;15.88;9.00;;;;;;;1.06;41.17;100374.66;7710492;32;38001;-73
2022/03/09 02:17:45;;;;;;;19.12;9.48;;;;;;;0.93;41.83;100393.34;7688542;32;40047;-73
2022/03/09 02:22:07;;;;;;;21.02;9.65;;;;;;;1.15;40.95;100380.72;7683640;32;40570;-72
2022/03/09 02:26:23;;;;;;;19.65;9.55;;;;;;;1.33;42.97;100382.06;7684325;32;37689;-72
2022/03/09 02:30:39;;;;;;;19.52;9.73;;;;;;;1.10;43.96;100377.78;7683563;32;37887;-72
2022/03/09 02:34:56;;;;;;;18.92;11.12;;;;;;;1.23;43.71;100377.06;7683289;32;39124;-72
2022/03/09 02:39:12;;;;;;;19.58;10.10;;;;;;;0.97;45.41;100375.84;7683207;32;39949;-74
2022/03/09 02:43:28;;;;;;;18.27;9.70;;;;;;;1.00;44.51;100388.03;7683003;32;38737;-72
2022/03/09 02:47:45;;;;;;;21.77;10.75;;;;;;;1.21;43.20;100389.84;7961170;26;37417;-71
2022/03/09 02:52:01;;;;;;;22.30;10.20;;;;;;;1.14;43.26;100387.13;7736409;32;39382;-71
2022/03/09 02:56:17;;;;;;;22.10;10.50;;;;;;;1.21;42.67;100384.47;7736268;32;41255;-71
2022/03/09 03:00:33;;;;;;;23.58;10.55;;;;;;;1.34;42.19;100379.19;7735819;32;37611;-71
2022/03/09 03:04:49;;;;;;;18.73;10.77;;;;;;;1.40;41.67;100364.97;7735989;32;37761;-71
2022/03/09 03:09:06;;;;;;;25.45;11.65;;;;;;;1.29;42.19;100360.13;7735994;32;40071;-71
2022/03/09 03:13:22;;;;;;;22.20;11.10;;;;;;;1.40;42.42;100361.47;7735802;32;40746;-71
2022/03/09 03:17:38;;;;;;;24.95;12.52;;;;;;;1.27;42.99;100373.78;7735299;32;37887;-71
2022/03/09 03:21:54;;;;;;;23.27;12.40;;;;;;;1.06;43.75;100380.03;7735635;32;38010;-71
2022/03/09 03:26:10;;;;;;;26.33;11.98;;;;;;;1.20;43.88;100382.81;7735479;32;39255;-72
2022/03/09 03:30:26;;;;;;;22.60;12.27;;;;;;;1.15;43.43;100374.53;7737028;32;40794;-71
2022/03/09 03:34:42;;;;;;;22.10;12.23;;;;;;;1.29;43.13;100382.47;7739347;32;37982;-72
2022/03/09 03:38:58;;;;;;;24.23;11.63;;;;;;;1.10;44.13;100386.69;7739264;32;37241;-72
2022/03/09 03:43:15;;;;;;;23.80;12.57;;;;;;;1.36;43.71;100392.44;7739278;32;40164;-72
2022/03/09 03:47:31;;;;;;;22.98;13.00;;;;;;;1.38;43.81;100385.84;7738645;32;40791;-72
2022/03/09 03:51:47;;;;;;;20.27;12.02;;;;;;;1.16;43.86;100384.25;7739023;32;38740;-71
2022/03/09 03:56:03;;;;;;;28.30;13.35;;;;;;;1.37;43.60;100384.19;7739146;32;38059;-72
2022/03/09 04:00:20;;;;;;;26.98;12.55;;;;;;;1.20;44.26;100385.50;7739098;32;38995;-71
2022/03/09 04:04:36;;;;;;;20.58;12.15;;;;;;;1.13;44.78;100391.66;7738923;32;40142;-71
2022/03/09 04:08:52;;;;;;;21.87;12.55;;;;;;;1.41;43.88;100389.97;7738727;32;38776;-71
2022/03/09 04:13:08;;;;;;;23.62;13.50;;;;;;;1.32;44.48;100389.31;7738813;32;37459;-72
2022/03/09 04:17:24;;;;;;;28.98;14.18;;;;;;;1.26;44.83;100387.38;7738043;32;39353;-71
2022/03/09 04:21:40;;;;;;;27.85;14.10;;;;;;;1.25;45.64;100386.56;7738693;32;40925;-72
2022/03/09 04:25:56;;;;;;;28.60;13.95;;;;;;;1.24;45.81;100386.75;7738650;32;38083;-70
2022/03/09 04:30:12;;;;;;;24.00;13.52;;;;;;;1.33;45.87;100382.91;7738395;32;37344;-70
2022/03/09 04:34:28;;;;;;;27.92;14.93;;;;;;;1.34;45.80;100392.63;7738658;32;39341;-71
2022/03/09 04:38:45;;;;;;;28.98;14.20;;;;;;;1.49;45.24;100382.59;7738515;32;40754;-70
2022/03/09 04:43:01;;;;;;;26.87;15.07;;;;;;;1.54;45.19;100375.81;7737693;32;38704;-71
2022/03/09 04:47:17;;;;;;;23.80;14.38;;;;;;;1.48;45.50;100375.56;7737902;32;37365;-71
2022/03/09 04:51:33;;;;;;;27.17;15.60;;;;;;;1.64;45.13;100381.66;7738430;32;40118;-71
2022/03/09 04:55:49;;;;;;;25.30;13.32;;;;;;;1.41;45.67;100388.12;7738208;32;39889;-71
2022/03/09 05:00:08;;;;;;;25.58;15.15;;;;;;;1.47;45.56;100386.53;7738243;32;38750;-72
2022/03/09 05:04:24;;;;;;;30.73;16.70;;;;;;;1.47;45.77;100376.59;7738831;32;36283;-70
2022/03/09 05:08:41;;;;;;;27.48;15.93;;;;;;;1.53;45.36;100377.66;7738224;32;40056;-71
2022/03/09 05:12:57;;;;;;;29.77;15.50;;;;;;;1.65;45.16;100375.25;7738134;32;39926;-71
2022/03/09 05:17:13;;;;;;;30.55;15.43;;;;;;;1.68;45.16;100374.84;7737937;32;37965;-71
2022/03/09 05:21:29;;;;;;;28.20;15.95;;;;;;;1.41;45.70;100372.00;7738030;32;37197;-73
2022/03/09 05:25:45;;;;;;;27.83;16.05;;;;;;;1.64;44.86;100378.97;7738182;32;40106;-71
2022/03/09 05:30:02;;;;;;;31.95;15.85;;;;;;;1.66;44.92;100388.47;7737429;32;40777;-73
2022/03/09 05:34:18;;;;;;;31.92;17.17;;;;;;;1.67;45.27;100392.00;7737795;32;37597;-72
2022/03/09 05:38:34;;;;;;;33.97;16.77;;;;;;;1.69;45.40;100387.25;7738011;32;37974;-71
2022/03/09 05:42:50;;;;;;;29.98;17.02;;;;;;;1.62;45.67;100386.37;7737759;32;39404;-72
2022/03/09 05:47:08;;;;;;;31.37;16.23;;;;;;;1.50;46.10;100411.13;7737340;32;39619;-72
2022/03/09 05:51:24;;;;;;;31.37;16.73;;;;;;;1.68;45.79;100401.72;7737463;32;37559;-71
2022/03/09 05:55:40;;;;;;;34.70;16.60;;;;;;;1.56;46.33;100419.44;7737510;32;36866;-71
2022/03/09 05:59:56;;;;;;;35.28;16.23;;;;;;;1.87;45.55;100432.44;7737104;32;39405;-72
2022/03/09 06:04:13;;;;;;;31.98;16.55;;;;;;;1.79;45.65;100428.03;7737431;32;40740;-71
2022/03/09 06:08:29;;;;;;;31.45;15.60;;;;;;;1.79;45.33;100428.03;7737315;32;38683;-71
2022/03/09 06:12:45;;;;;;;34.70;16.33;;;;;;;1.99;45.06;100424.63;7737364;32;38127;-70
2022/03/09 06:17:01;;;;;;;31.17;17.20;;;;;;;1.98;45.04;100428.34;7734935;32;39349;-70
2022/03/09 06:21:17;;;;;;;33.60;16.62;;;;;;;2.28;44.40;100430.72;7737166;32;39884;-71
2022/03/09 06:25:34;;;;;;;31.73;17.37;;;;;;;2.32;44.41;100438.22;7736829;32;38780;-71
2022/03/09 06:29:50;;;;;;;34.47;18.30;;;;;;;2.47;44.10;100435.38;7733921;32;37908;-70
2022/03/09 06:34:06;;;;;;;32.33;17.48;;;;;;;2.42;44.45;100429.78;7736942;32;39349;-72
2022/03/09 06:38:22;;;;;;;34.35;18.02;;;;;;;2.46;44.26;100441.78;7736525;32;40716;-70
2022/03/09 06:42:39;;;;;;;41.75;17.85;;;;;;;2.65;43.86;100450.13;7736725;32;38678;-70
2022/03/09 06:46:56;;;;;;;35.00;17.92;;;;;;;2.55;44.74;100461.25;7736218;32;37155;-71
2022/03/09 06:51:12;;;;;;;33.00;17.40;;;;;;;2.76;44.64;100455.75;7736412;32;39949;-71
2022/03/09 06:55:28;;;;;;;28.10;16.92;;;;;;;3.08;44.06;100469.44;7736177;32;40676;-70
2022/03/09 06:59:46;;;;;;;33.88;19.12;;;;;;;2.73;45.26;100468.78;7736002;32;38427;-70
2022/03/09 07:04:02;;;;;;;32.28;17.62;;;;;;;2.96;44.43;100466.53;7736328;32;37465;-70
2022/03/09 07:08:18;;;;;;;34.45;20.25;;;;;;;3.11;44.62;100443.97;7739189;32;40011;-71
2022/03/09 07:12:34;;;;;;;33.38;18.35;;;;;;;3.22;44.88;100450.59;7739349;32;39971;-74
2022/03/09 07:16:50;;;;;;;36.00;18.48;;;;;;;3.57;45.46;100457.44;7738997;32;37877;-72
2022/03/09 07:21:06;;;;;;;35.50;18.52;;;;;;;3.64;44.01;100448.47;7739515;32;37294;-71
2022/03/09 07:25:22;;;;;;;34.65;18.25;;;;;;;3.99;48.51;100443.66;7739450;32;39424;-70
2022/03/09 07:29:43;;;;;;;33.95;17.58;;;;;;;3.88;43.47;100445.12;7739251;32;39945;-70
2022/03/09 07:33:59;;;;;;;33.60;18.85;;;;;;;4.41;42.10;100433.28;7739131;32;38801;-71
2022/03/09 07:38:15;;;;;;;34.55;19.15;;;;;;;4.10;42.18;100432.16;7739337;32;37312;-71
2022/03/09 07:42:31;;;;;;;33.55;18.73;;;;;;;4.56;41.49;100426.78;7738815;32;40121;-70
2022/03/09 07:46:48;;;;;;;35.53;20.27;;;;;;;4.46;41.73;100428.06;7738790;32;39950;-72
2022/03/09 07:51:04;;;;;;;41.53;20.15;;;;;;;3.98;42.34;100425.78;7738930;32;38708;-70
2022/03/09 07:55:21;;;;;;;34.22;18.90;;;;;;;4.47;42.08;100416.25;7738743;32;38011;-70
2022/03/09 07:59:42;;;;;;;35.83;19.23;;;;;;;4.86;41.62;100422.44;7739187;32;39172;-71
2022/03/09 08:03:58;;;;;;;36.17;19.35;;;;;;;4.91;41.58;100420.94;7738899;32;40154;-70
2022/03/09 08:08:14;;;;;;;38.90;19.37;;;;;;;5.43;40.65;100430.50;7738808;32;38082;-71
2022/03/09 08:12:30;;;;;;;33.50;19.17;;;;;;;5.17;41.46;100426.13;7738833;32;37305;-71
2022/03/09 08:16:47;;;;;;;35.90;18.40;;;;;;;5.33;41.44;100422.06;7737175;32;39399;-72
2022/03/09 08:21:03;;;;;;;36.15;18.92;;;;;;;5.67;40.58;100424.44;7738433;32;40811;-72
2022/03/09 08:25:19;;;;;;;78.87;40.00;;;;;;;5.14;41.50;100429.31;7738440;32;38135;-71
2022/03/09 08:29:35;;;;;;;45.28;23.20;;;;;;;5.61;40.82;100415.34;7738380;32;37531;-70
2022/03/09 08:33:51;;;;;;;54.75;24.00;;;;;;;5.40;40.04;100414.72;7738353;32;39900;-70
2022/03/09 08:38:07;;;;;;;32.75;17.48;;;;;;;5.88;39.77;100418.62;7738244;32;39606;-71
2022/03/09 08:42:24;;;;;;;38.35;18.27;;;;;;;5.45;39.66;100414.06;7738014;32;38557;-70
2022/03/09 08:46:40;;;;;;;34.63;19.20;;;;;;;5.32;40.13;100411.47;7736517;32;36925;-71
2022/03/09 08:50:56;;;;;;;33.95;17.83;;;;;;;5.61;39.86;100412.66;7738150;32;39335;-72
2022/03/09 08:55:12;;;;;;;29.30;17.08;;;;;;;5.24;40.48;100421.53;7738133;32;39956;-71
2022/03/09 08:59:28;;;;;;;31.90;17.50;;;;;;;5.84;39.92;100412.78;7738100;32;38549;-72
2022/03/09 09:03:44;;;;;;;31.37;17.45;;;;;;;5.10;41.66;100409.16;7738221;32;38040;-71
2022/03/09 09:08:00;;;;;;;31.70;17.45;;;;;;;5.26;41.33;100397.78;7738364;32;39407;-72
2022/03/09 09:12:21;;;;;;;30.30;16.33;;;;;;;5.10;41.97;100387.53;7738140;32;40030;-71
2022/03/09 09:16:38;;;;;;;32.85;18.42;;;;;;;4.87;41.95;100388.97;7737733;32;38004;-71
2022/03/09 09:20:56;;;;;;;31.12;17.62;;;;;;;4.78;42.85;100397.56;7738192;32;37947;-72
2022/03/09 09:25:12;;;;;;;29.80;17.62;;;;;;;4.39;43.93;100396.75;7737461;32;38373;-69
2022/03/09 09:29:29;;;;;;;30.33;17.60;;;;;;;5.00;43.13;100398.84;7737197;32;40742;-69
2022/03/09 09:33:45;;;;;;;30.42;17.30;;;;;;;5.04;43.99;100394.66;7737786;32;37979;-69
2022/03/09 09:38:06;;;;;;;31.75;15.38;;;;;;;5.60;42.01;100397.47;7737618;32;37313;-70
2022/03/09 09:42:30;;;;;;;31.25;17.55;;;;;;;5.52;41.96;100406.72;7737516;32;40198;-69
2022/03/09 09:47:08;;;;;;;28.05;15.40;;;;;;;5.74;42.27;100400.84;7736953;32;43131;-68
2022/03/09 09:51:25;;;;;;;33.13;17.75;;;;;;;6.34;40.22;100392.03;7736200;32;39480;-69
2022/03/09 09:55:42;;;;;;;29.30;17.62;;;;;;;6.54;40.29;100398.00;7737304;32;37494;-72
2022/03/09 09:59:59;;;;;;;30.05;16.67;;;;;;;5.95;40.68;100397.72;7737482;32;39269;-70
2022/03/09 10:04:15;;;;;;;30.05;17.77;;;;;;;6.62;40.25;100383.28;7737222;32;40709;-70
2022/03/09 10:08:32;;;;;;;33.78;19.02;;;;;;;7.07;39.75;100377.41;7735693;32;36578;-71
2022/03/09 10:12:48;;;;;;;29.75;17.08;;;;;;;7.24;39.50;100368.56;7735695;32;37269;-70
2022/03/09 10:17:07;;;;;;;31.85;15.38;;;;;;;8.20;37.56;100371.69;7735697;32;39606;-70
2022/03/09 10:21:26;;;;;;;29.50;15.95;;;;;;;9.17;36.71;100348.13;7734082;32;39818;-70
2022/03/09 10:25:43;;;;;;;23.60;13.68;;;;;;;9.30;34.70;100346.97;7736215;32;38529;-71
2022/03/09 10:30:00;;;;;;;25.65;14.43;;;;;;;9.61;33.54;100341.94;7736709;32;38029;-70
2022/03/09 10:34:24;;;;;;;29.50;15.43;;;;;;;8.88;36.15;100336.50;7734691;32;39235;-71
2022/03/09 10:38:43;;;;;;;25.00;13.93;;;;;;;9.52;34.28;100338.84;7736360;32;40902;-71
2022/03/09 10:43:12;;;;;;;25.70;14.07;;;;;;;9.83;34.14;100330.22;7739426;32;38258;-71
2022/03/09 10:47:33;;;;;;;25.08;13.38;;;;;;;10.39;33.70;100317.25;7739247;32;37266;-71
2022/03/09 10:51:51;;;;;;;28.87;11.12;;;;;;;10.47;33.41;100307.81;7740007;32;38805;-72
2022/03/09 10:56:07;;;;;;;18.00;10.65;;;;;;;11.84;30.77;100300.78;7739907;32;38929;-71
2022/03/09 11:00:47;;;;;;;16.70;10.40;;;;;;;12.69;29.28;100283.97;7739570;32;38547;-71
2022/03/09 11:05:14;;;;;;;16.65;10.07;;;;;;;13.39;28.08;100277.09;7739728;32;38431;-71
2022/03/09 11:09:31;;;;;;;15.63;9.05;;;;;;;13.08;28.21;100269.72;7739892;32;40048;-72
2022/03/09 11:13:47;;;;;;;17.02;9.30;;;;;;;14.10;26.14;100262.22;7739564;32;40775;-71
2022/03/09 11:18:03;;;;;;;15.82;10.07;;;;;;;14.07;26.66;100269.09;7739499;32;38758;-72
2022/03/09 11:22:19;;;;;;;16.17;9.32;;;;;;;14.88;25.75;100255.03;7738318;32;37058;-72
2022/03/09 11:26:43;;;;;;;16.60;8.95;;;;;;;15.70;24.17;100236.84;7739586;32;39192;-72
2022/03/09 11:31:02;;;;;;;16.85;9.25;;;;;;;15.66;24.08;100236.63;7738211;32;39995;-72
2022/03/09 11:35:48;;;;;;;16.20;9.05;;;;;;;14.74;25.47;100240.37;7739399;32;37913;-71
2022/03/09 11:40:08;;;;;;;15.60;9.07;;;;;;;14.91;24.63;100235.25;7737338;32;37201;-70
2022/03/09 11:44:29;;;;;;;14.38;8.82;;;;;;;14.25;25.55;100236.63;7738838;32;39388;-74
2022/03/09 11:48:50;;;;;;;13.20;7.45;;;;;;;12.81;27.25;100230.91;7738861;32;40845;-71
2022/03/09 11:53:08;;;;;;;15.85;6.70;;;;;;;14.03;25.83;100223.34;7738941;32;36864;-71
2022/03/09 11:57:44;;;;;;;15.07;7.15;;;;;;;14.17;25.53;100212.56;7739132;32;37950;-71
2022/03/09 12:02:11;;;;;;;12.07;6.60;;;;;;;14.88;24.90;100211.13;7738994;32;40030;-70
2022/03/09 12:06:45;;;;;;;13.30;7.57;;;;;;;14.88;24.30;100202.91;7738708;32;40876;-72
2022/03/09 12:11:01;;;;;;;13.48;7.70;;;;;;;14.43;25.08;100207.69;7738798;32;37750;-71
2022/03/09 12:15:18;;;;;;;14.45;7.60;;;;;;;14.78;24.43;100205.75;7738662;32;36804;-70
2022/03/09 12:19:34;;;;;;;16.02;8.13;;;;;;;13.51;26.22;100207.19;7738947;32;39875;-71
2022/03/09 12:24:13;;;;;;;13.55;7.50;;;;;;;13.35;26.60;100211.09;7738673;32;40566;-71
2022/03/09 12:28:35;;;;;;;8.90;4.80;;;;;;;14.14;26.07;100205.72;7738295;32;37629;-71
2022/03/09 12:32:51;;;;;;;9.30;5.45;;;;;;;14.43;24.82;100204.94;7738641;32;37157;-71
2022/03/09 12:37:10;;;;;;;9.98;4.95;;;;;;;14.68;24.19;100201.19;7737786;32;39276;-71
2022/03/09 12:41:44;;;;;;;7.87;4.40;;;;;;;14.99;23.30;100187.97;7737004;32;40100;-71
2022/03/09 12:46:00;;;;;;;10.68;6.22;;;;;;;15.32;23.36;100185.38;7737699;32;38796;-71
2022/03/09 12:50:21;;;;;;;11.70;6.28;;;;;;;13.80;25.47;100202.94;7736953;32;37974;-71
2022/03/09 12:54:42;;;;;;;13.10;6.57;;;;;;;14.13;25.31;100190.38;7736445;32;39345;-71
2022/03/09 12:59:18;;;;;;;10.07;5.62;;;;;;;14.86;24.01;100183.16;7736667;32;39962;-71
2022/03/09 13:03:34;;;;;;;13.35;5.97;;;;;;;14.55;24.90;100188.91;7736171;32;38023;-69
2022/03/09 13:07:59;;;;;;;12.40;6.20;;;;;;;14.78;24.26;100186.53;7734612;32;37920;-72
2022/03/09 13:12:15;;;;;;;11.12;5.75;;;;;;;15.05;24.52;100177.72;7737125;32;40045;-70
2022/03/09 13:16:31;;;;;;;30.05;7.50;;;;;;;15.22;24.00;100188.25;7730652;32;39611;-71
2022/03/09 13:20:47;;;;;;;13.82;7.10;;;;;;;14.57;25.50;100183.97;7710991;32;38039;-71
2022/03/09 13:25:04;;;;;;;12.35;6.07;;;;;;;14.08;25.90;100193.16;7719187;32;37187;-70
2022/03/09 13:29:24;;;;;;;13.50;5.87;;;;;;;13.79;26.38;100190.34;7737107;32;39446;-71
2022/03/09 13:33:40;;;;;;;12.05;6.43;;;;;;;13.89;26.36;100196.56;7737831;32;40841;-71
2022/03/09 13:38:01;;;;;;;16.42;7.37;;;;;;;13.55;26.93;100195.66;7736713;32;38869;-71
2022/03/09 13:42:24;;;;;;;14.65;7.35;;;;;;;13.58;26.88;100186.91;7737928;32;37786;-71
2022/03/09 13:46:40;;;;;;;16.62;7.82;;;;;;;13.47;27.17;100189.69;7736785;32;39441;-71
2022/03/09 13:51:01;;;;;;;14.75;7.37;;;;;;;13.47;27.33;100184.22;7737533;32;40936;-72
2022/03/09 13:55:21;;;;;;;14.30;6.78;;;;;;;12.64;28.54;100188.28;7737004;32;38002;-72
2022/03/09 13:59:42;;;;;;;12.68;7.35;;;;;;;13.21;27.75;100201.78;7737135;32;36265;-71
2022/03/09 14:04:02;;;;;;;13.05;6.95;;;;;;;13.37;27.61;100175.22;7737335;32;39368;-71
2022/03/09 14:08:31;;;;;;;13.52;7.07;;;;;;;12.61;28.34;100166.94;7736684;32;40163;-73
2022/03/09 14:12:47;;;;;;;14.80;7.40;;;;;;;11.32;30.62;100174.16;7736834;32;37875;-71
2022/03/09 14:17:04;;;;;;;16.70;8.90;;;;;;;11.88;29.52;100165.25;7735827;32;38134;-72
2022/03/09 14:21:21;;;;;;;18.30;7.75;;;;;;;11.41;30.74;100161.63;7736892;32;39274;-71
2022/03/09 14:25:37;;;;;;;14.35;7.12;;;;;;;11.41;30.44;100160.81;7737041;32;39987;-72
2022/03/09 14:29:53;;;;;;;11.48;6.68;;;;;;;11.56;30.18;100152.66;7736057;32;37971;-71
2022/03/09 14:34:09;;;;;;;13.32;6.53;;;;;;;11.58;30.04;100158.66;7737000;32;37860;-72
2022/03/09 14:38:26;;;;;;;12.70;7.60;;;;;;;11.33;30.57;100153.13;7735910;32;40182;-72
2022/03/09 14:42:42;;;;;;;18.40;7.65;;;;;;;10.76;32.11;100163.78;7736511;32;40725;-72
2022/03/09 14:46:58;;;;;;;14.07;7.45;;;;;;;10.58;31.91;100166.94;7735477;32;37931;-72
2022/03/09 14:51:14;;;;;;;12.57;7.62;;;;;;;10.93;31.33;100155.41;7735722;32;37140;-74
2022/03/09 14:55:30;;;;;;;11.90;7.03;;;;;;;10.36;32.17;100156.16;7736204;32;39155;-71
2022/03/09 14:59:46;;;;;;;12.68;6.87;;;;;;;10.67;31.27;100154.47;7735631;32;40139;-71
2022/03/09 15:04:02;;;;;;;17.20;7.45;;;;;;;10.93;31.38;100151.88;7735599;32;38156;-73
2022/03/09 15:08:18;;;;;;;15.25;7.70;;;;;;;11.33;30.92;100144.94;7734114;32;36682;-72
2022/03/09 15:12:37;;;;;;;15.43;7.62;;;;;;;11.37;30.31;100160.53;7735737;32;39314;-72
2022/03/09 15:16:53;;;;;;;13.90;7.72;;;;;;;11.74;30.13;100150.50;7735295;32;40778;-72
2022/03/09 15:21:10;;;;;;;13.55;6.30;;;;;;;12.01;29.46;100153.84;7734660;32;37693;-72
2022/03/09 15:25:26;;;;;;;12.43;5.68;;;;;;;11.88;29.01;100157.06;7736207;32;36907;-72
2022/03/09 15:29:42;;;;;;;13.27;5.82;;;;;;;12.33;28.40;100162.84;7738673;32;39444;-72
2022/03/09 15:33:58;;;;;;;14.05;5.15;;;;;;;12.94;26.75;100159.22;7738223;32;40062;-73
2022/03/09 15:38:14;;;;;;;10.40;5.15;;;;;;;13.71;25.33;100161.59;7737309;32;38064;-73
2022/03/09 15:42:30;;;;;;;17.77;5.40;;;;;;;14.26;24.19;100156.81;7739102;32;37425;-73
2022/03/09 15:46:46;;;;;;;8.50;4.95;;;;;;;14.79;23.04;100158.00;7737252;32;40168;-73
2022/03/09 15:51:03;;;;;;;9.30;4.85;;;;;;;15.17;22.31;100141.63;7738622;32;39890;-73
2022/03/09 15:55:23;;;;;;;9.18;4.93;;;;;;;14.07;23.05;100158.59;7738692;32;37647;-73
2022/03/09 15:59:39;;;;;;;12.40;5.05;;;;;;;14.35;22.82;100154.28;7738795;32;36724;-73
2022/03/09 16:03:55;;;;;;;12.48;5.05;;;;;;;14.25;22.92;100155.19;7736849;32;40202;-73
2022/03/09 16:08:11;;;;;;;12.25;6.20;;;;;;;13.80;22.87;100167.31;7737494;32;39840;-73
2022/03/09 16:12:27;;;;;;;16.10;7.12;;;;;;;13.56;23.99;100173.47;7720900;32;37953;-73
2022/03/09 16:16:43;;;;;;;14.23;7.07;;;;;;;12.86;25.60;100170.72;7738234;32;37160;-73
2022/03/09 16:21:00;;;;;;;12.25;6.47;;;;;;;11.83;27.38;100178.91;7735853;32;40288;-72
2022/03/09 16:25:17;;;;;;;14.23;7.53;;;;;;;11.81;27.75;100181.09;7728400;32;39855;-73
2022/03/09 16:29:33;;;;;;;12.25;7.50;;;;;;;11.31;28.45;100188.06;7735840;32;38617;-73
2022/03/09 16:33:50;;;;;;;12.23;6.43;;;;;;;10.85;29.19;100197.66;7737309;32;36787;-74
2022/03/09 16:38:06;;;;;;;11.02;6.10;;;;;;;10.95;28.79;100198.81;7735969;32;40131;-73
2022/03/09 16:42:22;;;;;;;12.00;6.03;;;;;;;11.16;28.03;100211.47;7735471;32;40967;-73
2022/03/09 16:46:38;;;;;;;14.18;6.65;;;;;;;10.95;28.71;100212.44;7736677;32;37566;-74
2022/03/09 16:50:55;;;;;;;11.73;5.95;;;;;;;10.73;28.73;100228.94;7730403;32;236727;-73
2022/03/09 16:55:12;;;;;;;14.20;6.57;;;;;;;10.76;28.50;100226.50;7738583;32;40039;-73
2022/03/09 16:59:28;;;;;;;12.57;6.85;;;;;;;10.78;28.13;100223.50;7737665;32;39718;-73
2022/03/09 17:03:44;;;;;;;12.93;6.30;;;;;;;10.61;27.72;100229.94;7737168;32;38014;-73
2022/03/09 17:08:00;;;;;;;10.75;5.50;;;;;;;10.24;28.76;100240.78;7738458;32;37953;-74
2022/03/09 17:12:16;;;;;;;15.68;6.57;;;;;;;10.02;28.89;100243.56;7736145;32;39395;-74
2022/03/09 17:16:32;;;;;;;12.40;6.18;;;;;;;10.22;28.61;100243.75;7730636;32;40807;-73
2022/03/09 17:20:48;;;;;;;10.90;5.97;;;;;;;10.28;28.21;100255.56;7737393;32;38195;-73
2022/03/09 17:25:08;;;;;;;12.90;6.32;;;;;;;10.48;27.67;100263.91;7738204;32;37176;-74
2022/03/09 17:29:23;;;;;;;12.77;5.60;;;;;;;10.38;27.97;100268.47;7737885;32;39079;-73
2022/03/09 17:33:42;;;;;;;11.80;5.78;;;;;;;10.32;28.16;100264.88;7737334;32;39635;-73
2022/03/09 17:37:58;;;;;;;18.50;6.20;;;;;;;10.38;28.06;100257.56;7738055;32;36960;-73
2022/03/09 17:42:14;;;;;;;13.30;6.00;;;;;;;10.21;28.20;100258.47;7730282;32;37944;-73
2022/03/09 17:46:30;;;;;;;14.30;6.05;;;;;;;10.27;27.81;100249.25;7710972;32;40165;-73
2022/03/09 17:50:47;;;;;;;14.80;6.55;;;;;;;9.95;28.74;100260.94;7710012;32;40001;-72
2022/03/09 17:55:04;;;;;;;15.82;7.25;;;;;;;9.84;28.15;100255.62;7722846;32;37704;-73
2022/03/09 17:59:20;;;;;;;13.32;6.68;;;;;;;10.00;27.83;100259.34;7736086;32;37211;-73
2022/03/09 18:03:36;;;;;;;12.15;6.10;;;;;;;9.85;27.60;100255.38;7710157;32;39259;-73
2022/03/09 18:07:52;;;;;;;13.62;6.18;;;;;;;9.95;27.45;100257.37;7710815;32;40758;-73
2022/03/09 18:12:10;;;;;;;12.10;6.12;;;;;;;9.83;27.86;100259.44;7711000;32;37747;-74
2022/03/09 18:16:26;;;;;;;13.25;6.53;;;;;;;9.59;27.72;100267.87;7703271;32;36940;-74
2022/03/09 18:20:49;;;;;;;15.57;6.25;;;;;;;9.73;27.44;100277.31;7710357;32;40200;-72
2022/03/09 18:25:05;;;;;;;11.10;5.97;;;;;;;9.72;27.40;100277.56;7709735;32;40864;-70
2022/03/09 18:29:36;;;;;;;11.27;5.62;;;;;;;9.69;27.83;100283.50;7710366;32;37942;-74
2022/03/09 18:33:52;;;;;;;11.68;5.72;;;;;;;9.65;27.79;100291.34;7709431;32;38005;-72
2022/03/09 18:38:08;;;;;;;11.43;5.72;;;;;;;9.64;27.47;100288.88;7710257;32;39067;-72
2022/03/09 18:42:25;;;;;;;12.77;5.78;;;;;;;9.59;27.43;100290.47;7725163;32;39926;-72
2022/03/09 18:46:41;;;;;;;10.73;5.45;;;;;;;9.74;27.05;100280.84;7735094;32;37401;-74
2022/03/09 18:50:57;;;;;;;18.55;5.60;;;;;;;9.83;27.00;100292.94;7735058;32;37081;-74
2022/03/09 18:55:13;;;;;;;9.38;5.37;;;;;;;9.69;27.31;100300.69;7736464;32;39515;-74
2022/03/09 18:59:29;;;;;;;12.60;5.97;;;;;;;9.55;27.52;100299.41;7736124;32;39636;-73
2022/03/09 19:03:45;;;;;;;14.60;6.75;;;;;;;9.45;27.93;100296.53;7739776;32;37818;-74
2022/03/09 19:08:01;;;;;;;12.10;6.55;;;;;;;9.28;28.58;100297.41;7739649;32;37139;-74
2022/03/09 19:12:17;;;;;;;13.62;7.18;;;;;;;9.17;28.89;100299.16;7729369;32;39844;-74
2022/03/09 19:16:34;;;;;;;20.98;9.10;;;;;;;9.26;29.02;100302.28;7738670;32;39981;-73
2022/03/09 19:20:50;;;;;;;17.00;8.20;;;;;;;8.97;29.57;100301.59;7725213;32;38130;-72
2022/03/09 19:25:07;;;;;;;16.48;8.23;;;;;;;9.14;29.51;100305.09;7712047;32;37857;-72
2022/03/09 19:29:23;;;;;;;17.62;8.90;;;;;;;9.30;30.34;100300.72;7712626;32;39545;-73
2022/03/09 19:33:39;;;;;;;15.45;7.90;;;;;;;8.98;29.67;100317.63;7726122;32;41030;-73
2022/03/09 19:37:55;;;;;;;16.52;8.20;;;;;;;9.13;29.37;100316.25;7738746;32;37872;-72
2022/03/09 19:42:12;;;;;;;16.55;7.57;;;;;;;9.13;28.97;100321.69;7737993;32;37776;-72
2022/03/09 19:46:28;;;;;;;20.35;7.50;;;;;;;9.15;28.65;100323.06;7727036;32;40114;-74
2022/03/09 19:50:44;;;;;;;12.85;7.30;;;;;;;8.95;28.19;100320.03;7737529;32;40121;-74